createdAt,value
2022-07-27T00:01:24.403Z,53491.16
2022-07-27T00:03:53.237Z,53487.19
2022-07-27T00:06:22.072Z,53469.28
2022-07-27T00:08:50.574Z,53459.34
2022-07-27T00:11:20.915Z,53479.22
2022-07-27T00:13:49.664Z,53449.41
2022-07-27T00:16:18.428Z,53449.41
2022-07-27T00:18:47.098Z,53493.13
2022-07-27T00:21:16.339Z,53493.13
2022-07-27T00:23:44.936Z,53489.16
2022-07-27T00:26:14.397Z,53481.22
2022-07-27T00:28:44.311Z,53515.00
2022-07-27T00:31:13.403Z,53471.28
2022-07-27T00:33:42.703Z,53473.25
2022-07-27T00:36:11.874Z,53483.19
2022-07-27T00:38:40.853Z,53520.97
2022-07-27T00:41:09.392Z,53483.19
2022-07-27T00:43:52.994Z,53515.00
2022-07-27T00:46:21.630Z,53487.19
2022-07-27T00:48:51.014Z,53501.09
2022-07-27T00:51:21.613Z,53475.25
2022-07-27T00:53:51.182Z,53463.31
2022-07-27T00:56:20.147Z,53495.13
2022-07-27T00:58:51.108Z,53489.16
2022-07-27T01:01:21.403Z,53491.16
2022-07-27T01:03:50.062Z,53501.09
2022-07-27T01:06:26.819Z,53485.19
2022-07-27T01:09:17.252Z,53503.06
2022-07-27T01:11:46.704Z,53493.13
2022-07-27T01:14:17.466Z,53511.03
2022-07-27T01:16:47.589Z,53489.16
2022-07-27T01:19:16.513Z,53499.09
2022-07-27T01:21:46.798Z,53491.16
2022-07-27T01:24:15.309Z,53499.09
2022-07-27T01:26:44.456Z,53491.16
2022-07-27T01:29:14.413Z,53499.09
2022-07-27T01:31:44.576Z,53499.09
2022-07-27T01:34:13.456Z,53528.94
2022-07-27T01:36:42.635Z,53522.97
2022-07-27T01:39:12.939Z,53483.19
2022-07-27T01:41:45.160Z,53530.91
2022-07-27T01:44:13.944Z,53524.94
2022-07-27T01:46:42.858Z,53518.97
2022-07-27T01:49:12.158Z,53532.91
2022-07-27T01:51:40.798Z,53495.13
2022-07-27T01:54:09.814Z,53534.88
2022-07-27T01:56:40.490Z,53505.06
2022-07-27T01:59:16.080Z,53534.88
2022-07-27T02:01:46.110Z,53542.84
2022-07-27T02:04:15.149Z,53507.06
2022-07-27T02:06:43.818Z,53546.81
2022-07-27T02:09:12.587Z,53497.13
2022-07-27T02:12:00.464Z,53518.97
2022-07-27T02:14:29.089Z,53536.88
2022-07-27T02:16:57.673Z,53540.84
2022-07-27T02:19:28.554Z,53548.81
2022-07-27T02:21:57.164Z,53546.81
2022-07-27T02:24:25.961Z,53526.94
2022-07-27T02:26:56.290Z,53520.97
2022-07-27T02:29:24.736Z,53526.94
2022-07-27T02:31:53.481Z,53548.81
2022-07-27T02:34:22.042Z,53548.81
2022-07-27T02:36:50.821Z,53554.78
2022-07-27T02:39:19.677Z,53524.94
2022-07-27T02:41:49.374Z,53522.97
2022-07-27T02:44:20.336Z,53562.72
2022-07-27T02:46:49.902Z,53532.91
2022-07-27T02:49:18.726Z,53536.88
2022-07-27T02:51:52.094Z,53548.81
2022-07-27T02:54:20.888Z,53566.69
2022-07-27T02:56:50.290Z,53564.72
2022-07-27T02:59:20.563Z,53566.69
2022-07-27T03:01:50.718Z,53562.72
2022-07-27T03:04:20.664Z,53556.75
2022-07-27T03:06:49.699Z,53570.69
2022-07-27T03:09:18.708Z,53554.78
2022-07-27T03:11:47.392Z,53522.97
2022-07-27T03:14:15.751Z,53558.75
2022-07-27T03:16:45.984Z,53598.50
2022-07-27T03:19:15.075Z,53574.66
2022-07-27T03:21:43.901Z,53602.47
2022-07-27T03:24:12.487Z,53574.66
2022-07-27T03:26:41.156Z,53594.53
2022-07-27T03:29:10.220Z,53606.47
2022-07-27T03:31:39.218Z,53566.69
2022-07-27T03:34:11.293Z,53578.63
2022-07-27T03:36:40.179Z,53566.69
2022-07-27T03:39:08.780Z,53582.59
2022-07-27T03:41:37.844Z,53604.47
2022-07-27T03:44:06.415Z,53590.56
2022-07-27T03:46:35.255Z,53578.63
2022-07-27T03:49:14.206Z,53572.66
2022-07-27T03:51:45.638Z,53606.47
2022-07-27T03:54:14.516Z,53604.47
2022-07-27T03:56:43.109Z,53582.59
2022-07-27T03:59:12.807Z,53632.31
2022-07-27T04:01:42.550Z,53592.53
2022-07-27T04:04:11.465Z,53590.56
2022-07-27T04:06:40.278Z,53586.56
2022-07-27T04:09:10.383Z,53582.59
2022-07-27T04:11:43.527Z,53586.56
2022-07-27T04:14:17.155Z,53582.59
2022-07-27T04:16:45.714Z,53590.56
2022-07-27T04:19:14.860Z,53588.56
2022-07-27T04:21:45.161Z,53608.44
2022-07-27T04:24:15.113Z,53608.44
2022-07-27T04:26:43.993Z,53600.50
2022-07-27T04:29:16.937Z,53606.47
2022-07-27T04:31:48.649Z,53584.59
2022-07-27T04:34:17.304Z,53552.78
2022-07-27T04:36:46.000Z,53600.50
2022-07-27T04:39:16.474Z,53552.78
2022-07-27T04:41:45.521Z,53572.66
2022-07-27T04:44:14.186Z,53584.59
2022-07-27T04:46:42.611Z,53554.78
2022-07-27T04:49:11.912Z,53562.72
2022-07-27T04:51:44.484Z,53580.63
2022-07-27T04:54:15.842Z,53588.56
2022-07-27T04:56:44.915Z,53584.59
2022-07-27T04:59:13.799Z,53584.59
2022-07-27T05:01:42.830Z,53558.75
2022-07-27T05:04:11.437Z,53568.69
2022-07-27T05:06:40.608Z,53522.97
2022-07-27T05:09:09.671Z,53558.75
2022-07-27T05:11:40.314Z,53562.72
2022-07-27T05:14:19.731Z,53554.78
2022-07-27T05:16:51.247Z,53530.91
2022-07-27T05:19:20.051Z,53544.81
2022-07-27T05:21:49.976Z,53558.75
2022-07-27T05:24:20.196Z,53550.78
2022-07-27T05:26:49.994Z,53536.88
2022-07-27T05:29:18.669Z,53503.06
2022-07-27T05:31:47.705Z,53562.72
2022-07-27T05:34:16.634Z,53513.03
2022-07-27T05:36:45.374Z,53528.94
2022-07-27T05:39:14.223Z,53515.00
2022-07-27T05:41:43.588Z,53497.13
2022-07-27T05:44:13.877Z,53487.19
2022-07-27T05:46:42.501Z,53497.13
2022-07-27T05:49:11.523Z,53499.09
2022-07-27T05:51:40.642Z,53479.22
2022-07-27T05:54:09.219Z,53503.06
2022-07-27T05:56:38.992Z,53477.22
2022-07-27T05:59:07.682Z,53503.06
2022-07-27T06:01:38.497Z,53483.19
2022-07-27T06:04:07.478Z,53491.16
2022-07-27T06:06:53.821Z,53471.28
2022-07-27T06:09:22.388Z,53455.38
2022-07-27T06:11:50.994Z,53477.22
2022-07-27T06:14:20.202Z,53465.31
2022-07-27T06:16:50.322Z,53491.16
2022-07-27T06:19:21.648Z,53459.34
2022-07-27T06:21:53.857Z,53457.34
2022-07-27T06:24:23.147Z,53461.31
2022-07-27T06:26:51.713Z,53455.38
2022-07-27T06:29:20.838Z,53491.16
2022-07-27T06:31:51.200Z,53445.44
2022-07-27T06:34:21.329Z,53447.41
2022-07-27T06:36:55.479Z,53435.47
2022-07-27T06:39:24.757Z,53491.16
2022-07-27T06:41:58.090Z,53431.50
2022-07-27T06:44:26.890Z,53443.44
2022-07-27T06:46:56.927Z,53419.59
2022-07-27T06:49:25.710Z,53459.34
2022-07-27T06:51:54.672Z,53431.50
2022-07-27T06:54:23.391Z,53433.50
2022-07-27T06:56:52.054Z,53403.69
2022-07-27T06:59:20.519Z,53427.53
2022-07-27T07:01:49.261Z,53417.59
2022-07-27T07:04:23.987Z,53429.53
2022-07-27T07:06:54.730Z,53427.53
2022-07-27T07:09:23.369Z,53403.69
2022-07-27T07:11:52.332Z,53419.59
2022-07-27T07:14:20.816Z,53403.69
2022-07-27T07:16:50.187Z,53411.63
2022-07-27T07:19:20.301Z,53405.66
2022-07-27T07:21:49.031Z,53413.63
2022-07-27T07:24:18.015Z,53383.78
2022-07-27T07:26:46.640Z,53377.84
2022-07-27T07:29:16.514Z,53377.84
2022-07-27T07:31:45.647Z,53403.69
2022-07-27T07:34:14.697Z,53365.91
2022-07-27T07:36:46.224Z,53363.91
2022-07-27T07:39:15.366Z,53363.91
2022-07-27T07:41:43.981Z,53365.91
2022-07-27T07:44:12.715Z,53367.91
2022-07-27T07:46:45.366Z,53363.91
2022-07-27T07:49:17.066Z,53371.88
2022-07-27T07:51:47.728Z,53344.03
2022-07-27T07:54:16.580Z,53328.13
2022-07-27T07:56:44.995Z,53334.09
2022-07-27T07:59:14.112Z,53344.03
2022-07-27T08:01:44.516Z,53312.22
2022-07-27T08:04:13.831Z,53332.09
2022-07-27T08:06:42.792Z,53308.25
2022-07-27T08:09:14.432Z,53340.06
2022-07-27T08:11:43.627Z,53324.16
2022-07-27T08:14:12.953Z,53320.19
2022-07-27T08:16:41.735Z,53316.22
2022-07-27T08:19:10.964Z,53334.09
2022-07-27T08:21:39.908Z,53334.09
2022-07-27T08:24:08.526Z,53346.03
2022-07-27T08:26:38.796Z,53346.03
2022-07-27T08:29:13.553Z,53342.06
2022-07-27T08:31:52.968Z,53336.09
2022-07-27T08:34:22.136Z,53324.16
2022-07-27T08:36:50.717Z,53310.25
2022-07-27T08:40:05.681Z,53308.25
2022-07-27T08:42:11.765Z,53342.06
2022-07-27T08:44:42.436Z,53314.22
2022-07-27T08:47:11.823Z,53342.06
2022-07-27T08:49:43.961Z,53284.41
2022-07-27T08:52:13.709Z,53320.19
2022-07-27T08:54:43.316Z,53316.22
2022-07-27T08:57:14.367Z,53300.31
2022-07-27T08:59:43.425Z,53308.25
2022-07-27T09:02:15.578Z,53288.38
2022-07-27T09:04:44.145Z,53300.31
2022-07-27T09:07:31.272Z,53284.41
2022-07-27T09:10:00.731Z,53292.34
2022-07-27T09:12:31.567Z,53256.56
2022-07-27T09:15:07.507Z,53304.28
2022-07-27T09:17:52.002Z,53316.22
2022-07-27T09:20:22.759Z,53330.13
2022-07-27T09:22:53.277Z,53298.31
2022-07-27T09:25:44.797Z,53288.38
2022-07-27T09:28:13.988Z,53320.19
2022-07-27T09:30:44.099Z,53312.22
2022-07-27T09:33:16.472Z,53300.31
2022-07-27T09:35:46.446Z,53288.38
2022-07-27T09:38:19.773Z,53288.38
2022-07-27T09:40:49.939Z,53284.41
2022-07-27T09:44:12.297Z,53276.44
2022-07-27T09:46:09.333Z,53260.53
2022-07-27T09:48:38.151Z,53300.31
2022-07-27T09:51:55.607Z,53268.50
2022-07-27T09:54:00.126Z,53246.63
2022-07-27T09:56:29.923Z,53266.50
2022-07-27T09:59:01.870Z,53242.66
2022-07-27T10:01:33.289Z,53280.41
2022-07-27T10:04:04.103Z,53296.31
2022-07-27T10:06:53.530Z,53272.47
2022-07-27T10:09:22.754Z,53256.56
2022-07-27T10:11:51.833Z,53260.53
2022-07-27T10:14:21.745Z,53226.75
2022-07-27T10:16:52.098Z,53232.72
2022-07-27T10:19:25.031Z,53246.63
2022-07-27T10:21:53.933Z,53244.63
2022-07-27T10:24:28.997Z,53252.59
2022-07-27T10:26:57.837Z,53264.53
2022-07-27T10:29:28.350Z,53270.47
2022-07-27T10:32:02.124Z,53248.63
2022-07-27T10:34:36.046Z,53260.53
2022-07-27T10:37:13.195Z,53272.47
2022-07-27T10:39:44.276Z,53280.41
2022-07-27T10:42:28.038Z,53252.59
2022-07-27T10:45:05.116Z,53248.63
2022-07-27T10:47:42.470Z,53224.75
2022-07-27T10:50:31.309Z,53250.59
2022-07-27T10:53:02.552Z,53204.88
2022-07-27T10:55:55.789Z,53218.81
2022-07-27T10:58:47.961Z,53200.91
2022-07-27T11:01:22.896Z,53212.84
2022-07-27T11:03:56.194Z,53226.75
2022-07-27T11:06:42.175Z,53183.00
2022-07-27T11:10:02.568Z,53202.91
2022-07-27T11:12:09.166Z,53228.75
2022-07-27T11:14:46.506Z,53220.78
2022-07-27T11:17:48.894Z,53220.78
2022-07-27T11:20:07.130Z,53204.88
2022-07-27T11:25:26.223Z,53192.94
2022-07-27T11:27:54.788Z,53187.00
2022-07-27T11:30:25.177Z,53179.03
2022-07-27T11:32:55.689Z,53155.19
2022-07-27T11:35:24.759Z,53155.19
2022-07-27T11:38:02.143Z,53181.03
2022-07-27T11:41:12.708Z,53181.03
2022-07-27T11:43:37.163Z,53175.06
2022-07-27T11:46:14.384Z,53179.03
2022-07-27T11:49:09.278Z,53153.19
2022-07-27T11:51:40.233Z,53155.19
2022-07-27T11:54:10.533Z,53159.16
2022-07-27T11:56:43.433Z,53133.31
2022-07-27T11:59:17.790Z,53113.44
2022-07-27T12:01:50.008Z,53091.56
2022-07-27T12:04:23.220Z,53169.09
2022-07-27T12:07:04.814Z,53161.16
2022-07-27T12:09:38.095Z,53165.13
2022-07-27T12:12:14.297Z,53149.22
2022-07-27T12:14:46.050Z,53194.94
2022-07-27T12:17:27.698Z,53177.06
2022-07-27T12:20:00.774Z,53183.00
2022-07-27T12:22:33.357Z,53177.06
2022-07-27T12:25:10.057Z,53177.06
2022-07-27T12:27:56.534Z,53117.41
2022-07-27T12:30:33.305Z,53103.50
2022-07-27T12:33:03.270Z,53073.69
2022-07-27T12:35:38.179Z,53073.69
2022-07-27T12:38:11.338Z,53091.56
2022-07-27T12:40:46.918Z,53137.28
2022-07-27T12:43:20.678Z,53177.06
2022-07-27T12:45:50.622Z,53141.28
2022-07-27T12:48:21.765Z,53171.09
2022-07-27T12:51:02.629Z,53091.56
2022-07-27T12:53:33.067Z,53069.72
2022-07-27T12:56:04.485Z,53083.63
2022-07-27T12:58:34.409Z,53045.84
2022-07-27T13:01:03.576Z,53063.75
2022-07-27T13:03:32.729Z,53157.19
2022-07-27T13:06:02.965Z,53165.13
2022-07-27T13:08:31.711Z,53169.09
2022-07-27T13:11:00.982Z,53145.25
2022-07-27T13:13:29.922Z,53169.09
2022-07-27T13:15:58.770Z,53157.19
2022-07-27T13:18:27.627Z,53165.13
2022-07-27T13:20:56.479Z,53167.13
2022-07-27T13:23:26.983Z,53061.75
2022-07-27T13:25:56.139Z,53069.72
2022-07-27T13:28:24.721Z,53049.84
2022-07-27T13:30:53.942Z,53059.78
2022-07-27T13:33:22.778Z,53081.63
2022-07-27T13:36:00.290Z,53173.06
2022-07-27T13:38:31.373Z,53143.25
2022-07-27T13:40:59.998Z,53131.34
2022-07-27T13:43:29.071Z,53157.19
2022-07-27T13:45:57.825Z,53149.22
2022-07-27T13:48:27.154Z,53133.31
2022-07-27T13:50:55.923Z,53129.34
2022-07-27T13:53:24.568Z,53149.22
2022-07-27T13:55:54.599Z,53151.22
2022-07-27T13:58:23.384Z,53165.13
2022-07-27T14:00:52.440Z,53125.38
2022-07-27T14:03:22.293Z,53127.34
2022-07-27T14:05:50.941Z,53101.50
2022-07-27T14:08:23.180Z,53081.63
2022-07-27T14:10:51.766Z,53059.78
2022-07-27T14:13:22.844Z,53085.63
2022-07-27T14:15:53.504Z,53053.81
2022-07-27T14:18:25.599Z,53071.69
2022-07-27T14:20:54.914Z,53097.53
2022-07-27T14:23:23.994Z,53089.59
2022-07-27T14:25:52.854Z,53075.66
2022-07-27T14:28:23.435Z,53143.25
2022-07-27T14:30:52.839Z,53111.44
2022-07-27T14:33:21.905Z,53137.28
2022-07-27T14:35:50.765Z,53133.31
2022-07-27T14:38:25.092Z,53133.31
2022-07-27T14:41:00.967Z,53105.50
2022-07-27T14:43:31.990Z,53115.44
2022-07-27T14:46:01.554Z,53125.38
2022-07-27T14:49:04.175Z,53107.47
2022-07-27T14:51:19.185Z,53169.09
2022-07-27T14:53:47.975Z,53157.19
2022-07-27T14:56:16.830Z,53135.31
2022-07-27T14:58:46.764Z,53121.41
2022-07-27T15:01:17.055Z,53149.22
2022-07-27T15:03:47.110Z,53093.56
2022-07-27T15:06:15.910Z,53117.41
2022-07-27T15:08:44.875Z,53113.44
2022-07-27T15:11:13.574Z,53123.38
2022-07-27T15:13:42.273Z,53137.28
2022-07-27T15:16:13.073Z,53125.38
2022-07-27T15:18:42.598Z,53115.44
2022-07-27T15:21:14.756Z,53127.34
2022-07-27T15:23:44.711Z,53133.31
2022-07-27T15:26:13.812Z,53153.19
2022-07-27T15:28:42.963Z,53165.13
2022-07-27T15:31:13.658Z,53139.28
2022-07-27T15:33:42.936Z,53173.06
2022-07-27T15:36:31.410Z,53173.06
2022-07-27T15:39:00.697Z,53153.19
2022-07-27T15:41:29.310Z,53151.22
2022-07-27T15:44:01.365Z,53177.06
2022-07-27T15:46:34.585Z,53139.28
2022-07-27T15:49:03.374Z,53145.25
2022-07-27T15:51:32.543Z,53121.41
2022-07-27T15:54:01.209Z,53137.28
2022-07-27T15:56:30.189Z,53153.19
2022-07-27T15:58:58.800Z,53127.34
2022-07-27T16:01:35.221Z,53147.22
2022-07-27T16:04:15.530Z,53185.00
2022-07-27T16:06:44.369Z,53149.22
2022-07-27T16:09:14.099Z,53149.22
2022-07-27T16:11:43.763Z,53137.28
2022-07-27T16:14:12.329Z,53169.09
2022-07-27T16:16:41.033Z,53153.19
2022-07-27T16:19:14.313Z,53135.31
2022-07-27T16:21:53.610Z,53139.28
2022-07-27T16:24:25.802Z,53147.22
2022-07-27T16:26:54.885Z,53157.19
2022-07-27T16:29:24.206Z,53117.41
2022-07-27T16:31:58.035Z,53139.28
2022-07-27T16:34:27.943Z,53149.22
2022-07-27T16:36:58.377Z,53169.09
2022-07-27T16:39:27.729Z,53121.41
2022-07-27T16:41:58.569Z,53145.25
2022-07-27T16:44:27.432Z,53161.16
2022-07-27T16:46:56.399Z,53177.06
2022-07-27T16:49:36.047Z,53173.06
2022-07-27T16:52:07.990Z,53165.13
2022-07-27T16:54:39.582Z,53167.13
2022-07-27T16:57:09.363Z,53165.13
2022-07-27T16:59:39.284Z,53145.25
2022-07-27T17:02:07.906Z,53165.13
2022-07-27T17:04:36.986Z,53153.19
2022-07-27T17:07:12.716Z,53169.09
2022-07-27T17:09:41.744Z,53165.13
2022-07-27T17:12:10.663Z,53157.19
2022-07-27T17:14:39.249Z,53149.22
2022-07-27T17:17:08.400Z,53147.22
2022-07-27T17:19:40.162Z,53188.97
2022-07-27T17:22:10.190Z,53147.22
2022-07-27T17:24:38.835Z,53145.25
2022-07-27T17:27:07.650Z,53165.13
2022-07-27T17:29:36.309Z,53173.06
2022-07-27T17:32:05.104Z,53161.16
2022-07-27T17:34:33.722Z,53165.13
2022-07-27T17:37:02.636Z,53163.13
2022-07-27T17:39:32.684Z,53149.22
2022-07-27T17:42:01.453Z,53173.06
2022-07-27T17:44:30.255Z,53181.03
2022-07-27T17:47:01.229Z,53198.91
2022-07-27T17:49:32.413Z,53161.16
2022-07-27T17:52:02.982Z,53165.13
2022-07-27T17:54:33.372Z,53153.19
2022-07-27T17:57:02.186Z,53188.97
2022-07-27T17:59:38.577Z,53151.22
2022-07-27T18:02:07.591Z,53169.09
2022-07-27T18:04:39.342Z,53181.03
2022-07-27T18:07:08.674Z,53137.28
2022-07-27T18:09:38.990Z,53171.09
2022-07-27T18:12:08.535Z,53194.94
2022-07-27T18:14:38.557Z,53183.00
2022-07-27T18:17:07.854Z,53149.22
2022-07-27T18:19:37.228Z,53188.97
2022-07-27T18:22:06.076Z,53165.13
2022-07-27T18:24:35.789Z,53185.00
2022-07-27T18:27:06.882Z,53188.97
2022-07-27T18:29:35.533Z,53179.03
2022-07-27T18:32:04.422Z,53171.09
2022-07-27T18:34:33.504Z,53194.94
2022-07-27T18:37:02.062Z,53202.91
2022-07-27T18:39:33.870Z,53206.88
2022-07-27T18:42:03.973Z,53208.84
2022-07-27T18:44:38.746Z,53202.91
2022-07-27T18:47:08.012Z,53216.81
2022-07-27T18:49:36.739Z,53194.94
2022-07-27T18:52:05.878Z,53204.88
2022-07-27T18:54:34.904Z,53185.00
2022-07-27T18:57:03.935Z,53226.75
2022-07-27T18:59:36.962Z,53192.94
2022-07-27T19:02:10.307Z,53198.91
2022-07-27T19:04:39.256Z,53216.81
2022-07-27T19:07:10.914Z,53210.84
2022-07-27T19:09:43.116Z,53210.84
2022-07-27T19:12:11.928Z,53228.75
2022-07-27T19:14:42.266Z,53256.56
2022-07-27T19:17:14.728Z,53242.66
2022-07-27T19:19:43.960Z,53230.72
2022-07-27T19:22:12.740Z,53224.75
2022-07-27T19:24:41.406Z,53254.59
2022-07-27T19:27:11.239Z,53220.78
2022-07-27T19:29:41.262Z,53244.63
2022-07-27T19:32:11.119Z,53254.59
2022-07-27T19:34:40.071Z,53284.41
2022-07-27T19:37:08.806Z,53248.63
2022-07-27T19:39:57.160Z,53254.59
2022-07-27T19:42:27.569Z,53292.34
2022-07-27T19:44:57.538Z,53242.66
2022-07-27T19:47:26.726Z,53268.50
2022-07-27T19:49:55.312Z,53254.59
2022-07-27T19:52:23.885Z,53266.50
2022-07-27T19:54:52.774Z,53268.50
2022-07-27T19:57:21.463Z,53268.50
2022-07-27T19:59:56.387Z,53248.63
2022-07-27T20:02:26.974Z,53268.50
2022-07-27T20:04:55.818Z,53288.38
2022-07-27T20:07:24.623Z,53276.44
2022-07-27T20:09:53.354Z,53300.31
2022-07-27T20:12:22.680Z,53292.34
2022-07-27T20:14:51.243Z,53282.41
2022-07-27T20:17:19.986Z,53308.25
2022-07-27T20:19:50.316Z,53308.25
2022-07-27T20:22:19.278Z,53320.19
2022-07-27T20:24:48.501Z,53322.16
2022-07-27T20:27:17.353Z,53292.34
2022-07-27T20:29:46.111Z,53300.31
2022-07-27T20:32:15.007Z,53326.16
2022-07-27T20:34:43.912Z,53296.31
2022-07-27T20:37:13.977Z,53306.28
2022-07-27T20:39:42.561Z,53336.09
2022-07-27T20:42:12.194Z,53342.06
2022-07-27T20:44:41.301Z,53348.00
2022-07-27T20:47:10.069Z,53342.06
2022-07-27T20:49:39.261Z,53318.19
2022-07-27T20:52:08.852Z,53324.16
2022-07-27T20:54:39.094Z,53304.28
2022-07-27T20:57:08.052Z,53330.13
2022-07-27T20:59:37.001Z,53276.44
2022-07-27T21:02:07.841Z,53363.91
2022-07-27T21:04:37.690Z,53342.06
2022-07-27T21:07:06.486Z,53352.00
2022-07-27T21:09:35.134Z,53344.03
2022-07-27T21:12:06.085Z,53316.22
2022-07-27T21:14:34.865Z,53350.00
2022-07-27T21:17:03.707Z,53344.03
2022-07-27T21:19:32.823Z,53353.97
2022-07-27T21:22:01.670Z,53353.97
2022-07-27T21:24:30.890Z,53359.94
2022-07-27T21:27:04.492Z,53330.13
2022-07-27T21:29:35.917Z,53352.00
2022-07-27T21:32:04.607Z,53359.94
2022-07-27T21:34:33.397Z,53377.84
2022-07-27T21:37:02.886Z,53348.00
2022-07-27T21:39:31.773Z,53348.00
2022-07-27T21:42:02.353Z,53383.78
2022-07-27T21:44:31.632Z,53391.75
2022-07-27T21:47:02.199Z,53367.91
2022-07-27T21:49:34.587Z,53385.78
2022-07-27T21:52:03.879Z,53377.84
2022-07-27T21:54:32.602Z,53377.84
2022-07-27T21:57:02.030Z,53391.75
2022-07-27T21:59:30.997Z,53363.91
2022-07-27T22:02:01.059Z,53367.91
2022-07-27T22:04:31.550Z,53419.59
2022-07-27T22:07:00.404Z,53373.84
2022-07-27T22:09:29.501Z,53379.81
2022-07-27T22:11:57.958Z,53387.78
2022-07-27T22:14:26.545Z,53367.91
2022-07-27T22:16:55.524Z,53387.78
2022-07-27T22:19:24.666Z,53393.75
2022-07-27T22:21:54.674Z,53375.84
2022-07-27T22:24:23.296Z,53375.84
2022-07-27T22:26:51.947Z,53377.84
2022-07-27T22:29:20.652Z,53395.72
2022-07-27T22:31:50.080Z,53413.63
2022-07-27T22:34:18.948Z,53369.88
2022-07-27T22:36:47.746Z,53403.69
2022-07-27T22:39:19.818Z,53379.81
2022-07-27T22:41:48.555Z,53417.59
2022-07-27T22:44:20.286Z,53373.84
2022-07-27T22:46:50.589Z,53363.91
2022-07-27T22:49:19.526Z,53401.69
2022-07-27T22:51:52.574Z,53352.00
2022-07-27T22:54:24.862Z,53379.81
2022-07-27T22:56:54.473Z,53350.00
2022-07-27T22:59:23.109Z,53371.88
2022-07-27T23:01:51.724Z,53363.91
2022-07-27T23:04:20.611Z,53350.00
2022-07-27T23:06:49.155Z,53391.75
2022-07-27T23:09:18.542Z,53371.88
2022-07-27T23:11:48.436Z,53352.00
2022-07-27T23:14:17.780Z,53342.06
2022-07-27T23:16:46.923Z,53326.16
2022-07-27T23:19:15.468Z,53355.97
2022-07-27T23:21:44.115Z,53381.81
2022-07-27T23:24:14.312Z,53363.91
2022-07-27T23:26:43.542Z,53344.03
2022-07-27T23:29:14.016Z,53363.91
2022-07-27T23:31:42.738Z,53348.00
2022-07-27T23:34:12.111Z,53348.00
2022-07-27T23:36:43.440Z,53355.97
2022-07-27T23:39:11.949Z,53371.88
2022-07-27T23:41:40.588Z,53363.91
2022-07-27T23:44:08.974Z,53379.81
2022-07-27T23:46:38.783Z,53379.81
2022-07-27T23:49:07.540Z,53344.03
2022-07-27T23:51:36.313Z,53355.97
2022-07-27T23:54:04.758Z,53344.03
2022-07-27T23:56:33.156Z,53369.88
2022-07-27T23:59:01.709Z,53359.94
